Time;durP1;ratioP1;P1;durP2;ratioP2;P2;SDS_P1;SDS_P2;PMS_P1;PMS_P2;Temp;Humidity;BMP_temperature;BMP_pressure;BME280_temperature;BME280_humidity;BME280_pressure;Samples;Min_cycle;Max_cycle;Signal;HPM_P1;HPM_P2
2023/12/13 00:00:33;;;;;;;;;28.80;24.60;;;;;12.45;44.29;98563.03;5110279;27;8868;-74
2023/12/13 00:03:22;;;;;;;;;31.20;27.40;;;;;12.29;44.80;98554.94;5144960;27;9618;-73
2023/12/13 00:05:53;;;;;;;;;19.80;18.80;;;;;12.13;45.15;98560.88;5113770;27;8845;-74
2023/12/13 00:08:22;;;;;;;;;16.20;15.80;;;;;12.01;45.52;98555.28;5149245;27;8957;-73
2023/12/13 00:10:57;;;;;;;;;17.40;16.80;;;;;11.88;45.63;98547.91;5146064;27;8851;-73
2023/12/13 00:13:27;;;;;;;;;15.20;15.20;;;;;11.73;46.48;98535.34;5135345;27;8971;-74
2023/12/13 00:15:56;;;;;;;;;16.40;16.40;;;;;11.84;46.05;98540.19;5133008;27;8865;-73
2023/12/13 00:18:25;;;;;;;;;15.60;14.40;;;;;12.01;45.50;98539.47;5088878;27;9647;-75
2023/12/13 00:20:56;;;;;;;;;16.80;16.80;;;;;12.02;45.47;98530.66;5132569;27;8862;-73
2023/12/13 00:23:24;;;;;;;;;13.20;13.00;;;;;12.00;45.41;98524.59;5132476;27;8883;-74
2023/12/13 00:25:53;;;;;;;;;15.20;14.20;;;;;12.04;45.27;98528.81;5138181;27;8816;-74
2023/12/13 00:28:22;;;;;;;;;13.00;13.00;;;;;11.86;45.97;98526.06;5100668;27;8874;-74
2023/12/13 00:30:55;;;;;;;;;15.40;15.00;;;;;11.77;46.40;98527.25;5153133;27;8851;-72
2023/12/13 00:33:23;;;;;;;;;15.40;14.80;;;;;11.56;46.62;98517.63;5100262;27;8848;-74
2023/12/13 00:35:53;;;;;;;;;20.60;16.80;;;;;11.56;46.36;98507.97;5071933;28;8856;-75
2023/12/13 00:38:23;;;;;;;;;13.40;13.40;;;;;11.54;46.89;98501.91;5071750;28;8857;-74
2023/12/13 00:40:52;;;;;;;;;14.40;12.60;;;;;11.47;47.03;98497.81;5087408;28;8829;-74
2023/12/13 00:43:21;;;;;;;;;10.20;9.00;;;;;11.53;46.75;98501.97;5088428;28;8861;-75
2023/12/13 00:45:50;;;;;;;;;14.40;13.80;;;;;11.51;46.67;98503.81;5088449;28;8850;-74
2023/12/13 00:48:19;;;;;;;;;13.80;12.40;;;;;11.46;46.90;98503.13;5088509;28;8865;-74
2023/12/13 00:50:48;;;;;;;;;15.00;15.00;;;;;11.38;47.15;98506.06;5055334;28;8974;-74
2023/12/13 00:53:17;;;;;;;;;12.40;10.40;;;;;11.62;46.54;98512.09;5085696;28;8914;-74
2023/12/13 00:55:50;;;;;;;;;12.60;12.60;;;;;11.54;46.86;98506.28;5088457;28;8849;-73
2023/12/13 00:58:19;;;;;;;;;13.00;10.60;;;;;11.55;46.98;98495.69;5088595;28;8834;-74
2023/12/13 01:00:48;;;;;;;;;12.60;11.80;;;;;11.43;46.98;98504.13;5088267;28;8957;-74
2023/12/13 01:03:17;;;;;;;;;12.60;11.60;;;;;11.53;47.39;98486.16;5088029;28;8964;-74
2023/12/13 01:05:46;;;;;;;;;13.00;11.40;;;;;11.47;47.25;98478.53;5021854;28;8865;-73
2023/12/13 01:08:15;;;;;;;;;14.00;11.00;;;;;11.38;47.35;98471.88;5086686;28;8846;-73
2023/12/13 01:10:44;;;;;;;;;8.00;6.00;;;;;11.42;47.52;98483.13;5087146;28;8908;-73
2023/12/13 01:13:14;;;;;;;;;14.00;13.00;;;;;11.58;47.36;98473.69;5069594;27;8923;-74
2023/12/13 01:15:44;;;;;;;;;12.20;10.80;;;;;11.47;47.20;98470.66;5131636;27;8833;-74
2023/12/13 01:18:13;;;;;;;;;14.00;14.00;;;;;11.69;46.92;98460.91;5131781;27;8841;-73
2023/12/13 01:20:42;;;;;;;;;11.60;11.60;;;;;11.78;46.65;98457.00;5133015;27;8904;-73
2023/12/13 01:23:11;;;;;;;;;12.20;12.20;;;;;11.86;46.23;98456.72;5152172;27;9109;-73
2023/12/13 01:25:40;;;;;;;;;10.20;8.60;;;;;11.76;46.79;98457.06;5149799;27;8853;-75
2023/12/13 01:28:09;;;;;;;;;9.80;9.80;;;;;11.76;46.95;98451.81;5132312;27;8845;-74
2023/12/13 01:30:40;;;;;;;;;14.20;13.00;;;;;11.70;46.79;98454.72;5130905;27;8841;-74
2023/12/13 01:33:09;;;;;;;;;14.80;13.60;;;;;11.70;46.64;98445.97;5131312;27;8834;-73
2023/12/13 01:35:38;;;;;;;;;15.00;14.60;;;;;11.63;47.33;98434.84;5144813;27;8979;-73
2023/12/13 01:38:06;;;;;;;;;14.40;13.20;;;;;11.65;47.31;98432.16;5133337;27;8924;-74
2023/12/13 01:40:35;;;;;;;;;11.80;10.40;;;;;11.53;47.30;98425.63;5133198;27;8869;-75
2023/12/13 01:43:04;;;;;;;;;10.20;10.20;;;;;11.59;47.11;98414.84;5148747;27;8942;-73
2023/12/13 01:45:33;;;;;;;;;13.60;12.20;;;;;11.45;47.62;98402.28;5115665;27;8827;-75
2023/12/13 01:48:04;;;;;;;;;13.60;9.80;;;;;11.56;47.48;98396.56;5152143;27;8839;-75
2023/12/13 01:50:33;;;;;;;;;8.40;7.80;;;;;11.68;46.88;98384.63;5151797;27;8864;-74
2023/12/13 01:53:02;;;;;;;;;8.60;8.00;;;;;11.68;46.88;98382.00;5151997;27;8853;-74
2023/12/13 01:55:31;;;;;;;;;8.60;7.00;;;;;11.74;46.68;98393.09;5151654;27;8841;-76
2023/12/13 01:58:04;;;;;;;;;10.20;9.20;;;;;11.84;46.47;98393.59;5137650;27;8833;-74
2023/12/13 02:00:34;;;;;;;;;10.80;10.20;;;;;11.95;46.36;98387.84;5113475;27;8846;-73
2023/12/13 02:03:04;;;;;;;;;10.00;7.80;;;;;12.04;46.49;98392.69;5151332;27;8987;-73
2023/12/13 02:05:34;;;;;;;;;6.80;6.80;;;;;12.05;46.06;98391.78;5151375;27;8852;-74
2023/12/13 02:08:04;;;;;;;;;8.20;7.00;;;;;12.02;46.51;98396.34;5132614;27;8853;-74
2023/12/13 02:10:34;;;;;;;;;8.40;7.60;;;;;12.05;46.40;98389.16;5097910;27;8845;-73
2023/12/13 02:13:03;;;;;;;;;11.00;9.80;;;;;12.05;46.26;98386.50;5138086;27;8853;-74
2023/12/13 02:15:35;;;;;;;;;10.20;9.60;;;;;12.02;46.21;98376.09;5130959;27;8817;-73
2023/12/13 02:18:08;;;;;;;;;12.80;11.20;;;;;12.07;46.20;98371.50;5150764;27;8869;-73
2023/12/13 02:20:37;;;;;;;;;13.80;11.60;;;;;12.03;46.55;98379.59;5150608;27;8868;-74
2023/12/13 02:23:07;;;;;;;;;11.80;10.00;;;;;11.95;46.58;98367.63;5098354;27;8841;-73
2023/12/13 02:25:41;;;;;;;;;10.40;10.40;;;;;11.92;46.59;98351.97;5150686;27;8860;-73
2023/12/13 02:28:11;;;;;;;;;11.80;9.40;;;;;12.06;46.15;98338.16;5121281;27;8983;-73
2023/12/13 02:30:41;;;;;;;;;8.00;7.20;;;;;12.04;46.08;98332.13;5129939;27;8853;-72
2023/12/13 02:33:10;;;;;;;;;9.60;8.00;;;;;11.70;46.96;98320.47;5093902;27;9008;-73
2023/12/13 02:35:39;;;;;;;;;7.20;6.00;;;;;11.91;46.66;98310.75;5130168;27;8926;-74
2023/12/13 02:38:09;;;;;;;;;6.60;6.40;;;;;11.85;46.55;98311.03;5120032;27;8877;-73
2023/12/13 02:40:38;;;;;;;;;8.00;8.00;;;;;12.03;46.24;98316.38;5150558;27;8841;-72
2023/12/13 02:43:07;;;;;;;;;8.20;7.20;;;;;11.83;46.63;98314.69;5143972;27;8841;-74
2023/12/13 02:45:36;;;;;;;;;10.80;9.00;;;;;11.95;46.26;98312.31;5129817;27;8845;-73
2023/12/13 02:48:06;;;;;;;;;7.60;7.00;;;;;11.97;46.83;98312.25;5149872;27;8879;-73
2023/12/13 02:50:36;;;;;;;;;3.60;3.00;;;;;11.83;46.92;98304.16;5132266;27;8845;-75
2023/12/13 02:53:05;;;;;;;;;7.40;7.00;;;;;11.95;46.81;98303.56;5150514;27;8974;-75
2023/12/13 02:55:36;;;;;;;;;8.00;8.00;;;;;11.87;46.92;98295.19;5150592;27;8841;-74
2023/12/13 02:58:06;;;;;;;;;7.40;7.40;;;;;11.88;46.44;98297.75;5146887;27;8857;-74
2023/12/13 03:00:35;;;;;;;;;5.80;5.80;;;;;11.95;46.68;98291.25;5111142;27;8933;-75
2023/12/13 03:03:04;;;;;;;;;8.80;8.00;;;;;12.02;46.27;98289.19;5129144;27;8854;-73
2023/12/13 03:05:33;;;;;;;;;8.20;8.20;;;;;12.05;46.43;98270.63;5129599;27;8834;-72
2023/12/13 03:08:02;;;;;;;;;6.40;6.40;;;;;12.05;45.88;98273.25;5124277;27;8841;-73
2023/12/13 03:10:31;;;;;;;;;7.40;7.40;;;;;11.96;46.36;98276.31;5111778;27;8825;-74
2023/12/13 03:13:02;;;;;;;;;7.20;6.60;;;;;11.92;46.47;98278.25;5131054;27;8837;-73
2023/12/13 03:15:31;;;;;;;;;7.00;7.00;;;;;11.85;46.51;98268.06;5141723;27;8833;-73
2023/12/13 03:18:00;;;;;;;;;7.20;5.80;;;;;12.00;46.23;98272.63;5111058;27;8864;-73
2023/12/13 03:20:30;;;;;;;;;7.80;7.80;;;;;12.01;46.13;98274.31;5129103;27;8849;-74
2023/12/13 03:22:59;;;;;;;;;7.60;6.40;;;;;12.07;45.84;98274.03;5129201;27;8858;-72
2023/12/13 03:25:28;;;;;;;;;7.80;7.80;;;;;12.19;45.84;98266.47;5110750;27;8925;-73
2023/12/13 03:27:57;;;;;;;;;6.60;5.80;;;;;12.00;46.07;98259.44;5094627;27;8833;-74
2023/12/13 03:30:28;;;;;;;;;7.20;7.20;;;;;11.97;46.49;98254.31;5130561;27;8853;-73
2023/12/13 03:32:56;;;;;;;;;9.60;9.60;;;;;11.75;46.44;98264.97;5129091;27;8911;-74
2023/12/13 03:35:26;;;;;;;;;7.80;7.60;;;;;11.81;46.59;98253.31;5129163;27;8841;-75
2023/12/13 03:37:54;;;;;;;;;9.00;8.00;;;;;11.89;46.87;98248.56;5099801;27;8859;-74
2023/12/13 03:40:24;;;;;;;;;11.20;8.00;;;;;11.98;46.27;98255.19;5149828;27;8803;-72
2023/12/13 03:42:52;;;;;;;;;7.00;7.00;;;;;12.03;46.38;98240.88;5087805;28;9003;-74
2023/12/13 03:45:23;;;;;;;;;8.00;8.00;;;;;12.10;46.10;98244.06;5085872;28;8880;-73
2023/12/13 03:47:53;;;;;;;;;11.80;9.80;;;;;12.14;46.02;98246.47;5071196;28;8852;-75
2023/12/13 03:50:23;;;;;;;;;7.60;7.60;;;;;11.81;46.74;98246.25;5110012;28;8821;-74
2023/12/13 03:52:51;;;;;;;;;8.40;8.40;;;;;12.01;46.07;98234.78;5109947;28;8945;-73
2023/12/13 03:55:21;;;;;;;;;6.20;5.80;;;;;11.95;46.44;98235.94;5109251;28;9053;-72
2023/12/13 03:57:49;;;;;;;;;9.20;9.20;;;;;11.92;46.83;98235.25;5106916;28;8871;-73
2023/12/13 04:00:19;;;;;;;;;9.00;7.40;;;;;11.98;46.14;98226.22;5107825;28;8848;-73
2023/12/13 04:02:48;;;;;;;;;8.40;8.40;;;;;11.98;46.84;98213.91;5058015;28;8851;-73
2023/12/13 04:05:18;;;;;;;;;6.80;6.80;;;;;12.04;46.47;98199.56;5108463;28;8856;-75
2023/12/13 04:07:47;;;;;;;;;7.00;7.00;;;;;11.92;46.96;98206.31;5109589;28;8912;-73
2023/12/13 04:10:18;;;;;;;;;7.00;7.00;;;;;12.04;46.40;98191.69;5110034;28;8835;-74
2023/12/13 04:12:47;;;;;;;;;6.20;6.20;;;;;12.22;45.86;98188.16;5076042;28;8872;-74
2023/12/13 04:15:16;;;;;;;;;8.80;8.80;;;;;12.27;46.27;98207.19;5140666;27;8834;-74
2023/12/13 04:17:45;;;;;;;;;6.20;6.00;;;;;11.98;46.66;98208.63;5130919;27;8881;-74
2023/12/13 04:20:14;;;;;;;;;5.00;5.00;;;;;12.10;46.44;98210.66;5138838;27;8920;-72
2023/12/13 04:22:45;;;;;;;;;6.00;6.00;;;;;12.00;46.42;98230.47;5134831;27;8847;-73
2023/12/13 04:25:15;;;;;;;;;4.00;4.00;;;;;12.20;46.20;98223.38;5131232;27;8831;-73
2023/12/13 04:27:47;;;;;;;;;4.40;4.40;;;;;12.31;45.84;98210.53;5132099;27;8847;-74
2023/12/13 04:30:16;;;;;;;;;7.60;7.60;;;;;12.35;45.98;98212.09;5113012;27;8866;-73
2023/12/13 04:32:45;;;;;;;;;11.40;10.20;;;;;12.25;46.44;98214.31;5127433;27;8950;-74
2023/12/13 04:35:14;;;;;;;;;25.40;25.20;;;;;12.30;46.68;98216.75;5131100;27;8834;-73
2023/12/13 04:37:44;;;;;;;;;5.80;5.60;;;;;12.29;46.57;98223.78;5132575;27;8873;-74
2023/12/13 04:40:13;;;;;;;;;4.00;4.00;;;;;12.28;46.99;98237.06;5132158;27;8826;-74
2023/12/13 04:42:42;;;;;;;;;5.40;5.40;;;;;12.02;47.67;98236.53;5131669;27;8855;-74
2023/12/13 04:45:11;;;;;;;;;5.20;5.20;;;;;12.21;47.10;98227.72;5131823;27;8835;-74
2023/12/13 04:47:40;;;;;;;;;4.20;4.20;;;;;12.27;47.05;98230.06;5132108;27;8971;-74
2023/12/13 04:50:10;;;;;;;;;4.60;4.60;;;;;12.28;47.31;98215.97;5130846;27;8834;-73
2023/12/13 04:52:39;;;;;;;;;6.60;6.00;;;;;12.38;46.60;98196.13;5095740;27;8959;-74
2023/12/13 04:55:10;;;;;;;;;5.60;5.60;;;;;12.27;47.00;98199.28;5131944;27;8830;-73
2023/12/13 04:57:39;;;;;;;;;8.20;8.20;;;;;12.49;46.96;98187.69;5131629;27;8889;-74
2023/12/13 05:00:09;;;;;;;;;10.80;9.20;;;;;12.44;46.80;98184.44;5130868;27;9966;-73
2023/12/13 05:02:39;;;;;;;;;7.20;6.20;;;;;12.39;46.90;98196.97;5131552;27;9619;-74
2023/12/13 05:05:08;;;;;;;;;6.00;5.80;;;;;12.39;47.17;98197.84;5130109;27;8923;-74
2023/12/13 05:07:37;;;;;;;;;6.00;5.60;;;;;12.32;47.13;98184.13;5129713;27;8862;-76
2023/12/13 05:10:08;;;;;;;;;8.40;7.00;;;;;12.35;47.36;98188.38;5125369;27;8939;-74
2023/12/13 05:12:38;;;;;;;;;8.00;5.40;;;;;12.65;46.66;98183.31;5111184;27;8861;-74
2023/12/13 05:15:08;;;;;;;;;9.00;7.60;;;;;12.59;46.55;98185.44;5110718;27;8857;-72
2023/12/13 05:17:37;;;;;;;;;8.20;7.40;;;;;12.67;46.54;98192.00;5109178;28;8868;-75
2023/12/13 05:20:08;;;;;;;;;8.80;8.40;;;;;12.58;46.77;98200.41;5126879;27;8862;-74
2023/12/13 05:22:37;;;;;;;;;7.60;6.60;;;;;12.67;46.41;98209.63;5129869;27;9606;-74
2023/12/13 05:25:08;;;;;;;;;5.00;4.00;;;;;12.52;46.56;98204.22;5138447;27;8934;-74
2023/12/13 05:27:38;;;;;;;;;8.80;6.40;;;;;12.24;47.48;98199.47;5107230;28;9971;-75
2023/12/13 05:30:08;;;;;;;;;6.00;6.00;;;;;12.35;47.07;98175.19;5023449;28;8909;-74
2023/12/13 05:32:37;;;;;;;;;7.80;7.20;;;;;12.44;46.98;98174.72;5070734;28;9574;-74
2023/12/13 05:35:07;;;;;;;;;6.20;6.20;;;;;12.40;47.04;98167.06;5087500;28;8850;-74
2023/12/13 05:37:36;;;;;;;;;9.20;7.80;;;;;12.43;47.32;98167.78;5102806;28;8839;-73
2023/12/13 05:40:07;;;;;;;;;8.00;6.80;;;;;12.53;46.72;98179.53;5106635;28;8893;-75
2023/12/13 05:42:36;;;;;;;;;7.00;7.00;;;;;12.69;46.33;98168.19;5102463;28;8851;-75
2023/12/13 05:45:08;;;;;;;;;10.80;10.60;;;;;12.49;47.08;98166.59;5105786;28;8839;-74
2023/12/13 05:47:36;;;;;;;;;10.20;9.00;;;;;12.44;46.69;98166.81;5073559;28;8839;-75
2023/12/13 05:50:08;;;;;;;;;23.40;22.00;;;;;12.82;46.02;98161.34;5095701;28;8840;-74
2023/12/13 05:52:38;;;;;;;;;33.20;29.60;;;;;13.01;45.88;98163.06;5056149;28;9594;-73
2023/12/13 05:55:09;;;;;;;;;13.80;13.80;;;;;13.20;45.38;98171.69;5101632;28;8844;-73
2023/12/13 05:57:37;;;;;;;;;21.40;17.60;;;;;13.15;45.16;98176.38;5072676;28;8868;-74
2023/12/13 06:00:09;;;;;;;;;20.20;18.60;;;;;13.18;45.18;98175.34;5105330;28;9048;-74
2023/12/13 06:02:38;;;;;;;;;17.20;16.20;;;;;13.19;45.13;98190.25;5069679;28;8839;-74
2023/12/13 06:05:25;;;;;;;;;13.20;13.20;;;;;13.24;45.04;98183.81;5126529;27;9704;-74
2023/12/13 06:07:54;;;;;;;;;12.80;11.60;;;;;13.30;44.69;98175.56;5139540;27;8976;-74
2023/12/13 06:10:23;;;;;;;;;15.00;13.00;;;;;13.34;44.37;98170.97;5108199;27;8833;-74
2023/12/13 06:12:52;;;;;;;;;9.60;9.60;;;;;13.38;44.42;98169.00;5139854;27;8861;-74
2023/12/13 06:15:23;;;;;;;;;10.00;9.80;;;;;13.44;44.09;98158.09;5111604;27;9622;-75
2023/12/13 06:17:52;;;;;;;;;15.00;13.00;;;;;13.40;44.39;98164.50;5129623;27;8841;-75
2023/12/13 06:20:21;;;;;;;;;13.00;13.00;;;;;13.44;44.18;98163.38;5094988;27;8858;-74
2023/12/13 06:22:50;;;;;;;;;14.40;14.40;;;;;13.49;44.13;98158.72;5129413;27;8872;-74
2023/12/13 06:25:20;;;;;;;;;13.00;11.20;;;;;13.41;44.06;98167.06;5097815;28;9038;-74
2023/12/13 06:27:49;;;;;;;;;12.80;12.80;;;;;13.44;43.93;98158.09;5088004;28;8863;-74
2023/12/13 06:30:18;;;;;;;;;5.00;4.00;;;;;13.41;44.06;98161.78;5056118;28;8956;-73
2023/12/13 06:32:48;;;;;;;;;11.80;10.40;;;;;13.38;44.39;98158.44;5059658;28;8871;-73
2023/12/13 06:35:18;;;;;;;;;9.80;7.40;;;;;13.36;44.36;98141.84;5088451;28;8836;-74
2023/12/13 06:37:47;;;;;;;;;14.40;14.00;;;;;13.17;44.60;98132.28;5104393;28;8845;-74
2023/12/13 06:40:18;;;;;;;;;11.80;11.00;;;;;13.06;44.76;98117.03;5073301;28;8869;-75
2023/12/13 06:42:47;;;;;;;;;13.60;13.60;;;;;12.90;45.30;98114.38;5074053;28;8845;-73
2023/12/13 06:45:16;;;;;;;;;17.00;17.00;;;;;12.81;45.61;98116.63;5108576;28;9617;-75
2023/12/13 06:47:44;;;;;;;;;13.40;13.40;;;;;12.66;45.97;98100.69;5109332;28;8848;-75
2023/12/13 06:50:15;;;;;;;;;16.20;14.80;;;;;12.65;46.25;98103.38;5107829;28;8984;-75
2023/12/13 06:52:47;;;;;;;;;7.20;7.20;;;;;12.61;46.21;98099.22;5092727;28;8899;-74
2023/12/13 06:55:16;;;;;;;;;18.60;17.20;;;;;12.49;47.30;98098.94;5055854;28;8855;-77
2023/12/13 06:57:46;;;;;;;;;17.60;14.40;;;;;12.54;47.00;98093.41;5088288;28;8863;-74
2023/12/13 07:00:19;;;;;;;;;24.60;19.80;;;;;12.31;47.72;98084.06;5086761;28;8859;-74
2023/12/13 07:02:49;;;;;;;;;22.60;18.20;;;;;12.27;48.76;98087.78;5082764;28;8914;-74
2023/12/13 07:05:20;;;;;;;;;15.20;15.20;;;;;12.16;48.38;98072.53;5054194;28;8841;-74
2023/12/13 07:07:49;;;;;;;;;17.60;16.00;;;;;12.04;48.95;98081.06;5088261;28;8975;-76
2023/12/13 07:10:18;;;;;;;;;16.00;16.00;;;;;11.91;49.13;98092.19;5105779;28;9002;-77
2023/12/13 07:12:47;;;;;;;;;18.20;16.20;;;;;11.94;48.96;98078.88;5054827;28;8973;-75
2023/12/13 07:15:16;;;;;;;;;19.20;19.00;;;;;11.87;49.34;98097.69;5105428;28;9044;-77
2023/12/13 07:17:45;;;;;;;;;17.00;17.00;;;;;11.83;49.17;98110.16;5097609;28;8880;-75
2023/12/13 07:20:17;;;;;;;;;16.60;15.60;;;;;11.90;48.98;98115.97;5103630;28;9582;-76
2023/12/13 07:22:47;;;;;;;;;17.00;16.60;;;;;11.94;48.89;98104.38;5107070;28;8865;-74
2023/12/13 07:25:16;;;;;;;;;19.80;18.00;;;;;11.82;49.18;98113.72;5124922;27;8849;-76
2023/12/13 07:27:45;;;;;;;;;17.40;16.40;;;;;11.80;49.33;98115.53;5131086;27;8883;-77
2023/12/13 07:30:14;;;;;;;;;20.20;16.20;;;;;11.86;49.31;98110.03;5131059;27;8841;-75
2023/12/13 07:32:44;;;;;;;;;17.60;16.00;;;;;11.87;49.11;98095.91;5096598;27;8876;-75
2023/12/13 07:35:15;;;;;;;;;13.80;12.80;;;;;11.86;49.20;98106.50;5149123;27;8829;-76
2023/12/13 07:37:44;;;;;;;;;17.40;15.60;;;;;11.91;48.84;98093.97;5130766;27;8892;-75
2023/12/13 07:40:15;;;;;;;;;19.80;18.00;;;;;11.89;48.89;98094.06;5130482;27;8951;-76
2023/12/13 07:42:46;;;;;;;;;21.20;20.00;;;;;11.90;48.99;98094.91;5130929;27;8841;-75
2023/12/13 07:45:16;;;;;;;;;14.20;14.00;;;;;11.77;49.54;98087.59;5096227;27;9003;-74
2023/12/13 07:47:46;;;;;;;;;18.40;18.40;;;;;11.80;49.21;98091.00;5145311;27;8844;-77
2023/12/13 07:50:35;;;;;;;;;19.40;17.40;;;;;11.81;48.99;98096.19;5142559;27;8856;-75
2023/12/13 07:53:04;;;;;;;;;23.80;21.20;;;;;11.82;49.33;98099.66;5149734;27;8829;-76
2023/12/13 07:55:35;;;;;;;;;18.40;17.80;;;;;11.87;49.05;98097.69;5126601;27;8852;-76
2023/12/13 07:58:04;;;;;;;;;23.20;20.40;;;;;11.75;49.41;98097.34;5089335;28;8859;-76
2023/12/13 08:00:33;;;;;;;;;23.00;20.60;;;;;11.77;49.48;98097.28;5105286;28;9672;-76
2023/12/13 08:03:02;;;;;;;;;15.60;15.20;;;;;11.98;48.81;98082.22;5054691;28;8950;-76
2023/12/13 08:05:32;;;;;;;;;19.80;18.60;;;;;12.03;48.87;98082.84;5105280;28;8874;-76
2023/12/13 08:08:01;;;;;;;;;18.60;18.40;;;;;12.13;48.22;98073.53;5105799;28;8867;-76
2023/12/13 08:10:30;;;;;;;;;19.80;19.00;;;;;12.14;48.45;98072.63;5088643;28;8851;-76
2023/12/13 08:13:00;;;;;;;;;20.60;18.40;;;;;12.11;48.26;98075.41;5084692;28;8939;-75
2023/12/13 08:15:30;;;;;;;;;20.20;18.20;;;;;12.10;48.52;98067.56;5067884;28;8846;-77
2023/12/13 08:17:59;;;;;;;;;18.20;18.00;;;;;12.11;48.74;98067.50;5068426;28;8866;-76
2023/12/13 08:20:29;;;;;;;;;17.20;16.20;;;;;12.09;48.40;98056.19;5084866;28;8842;-77
2023/12/13 08:22:58;;;;;;;;;17.80;17.80;;;;;11.95;48.60;98066.56;5084603;28;8870;-76
2023/12/13 08:25:27;;;;;;;;;14.60;14.60;;;;;12.02;48.74;98067.97;5084758;28;8850;-76
2023/12/13 08:27:56;;;;;;;;;18.20;18.00;;;;;11.96;48.83;98063.00;5083797;28;8838;-75
2023/12/13 08:30:27;;;;;;;;;18.60;15.60;;;;;11.90;49.09;98051.00;5089848;27;8865;-75
2023/12/13 08:32:56;;;;;;;;;20.80;17.40;;;;;11.89;49.51;98065.09;5107786;27;8884;-75
2023/12/13 08:35:26;;;;;;;;;18.20;18.00;;;;;11.93;49.48;98064.00;5076634;27;8884;-76
2023/12/13 08:37:55;;;;;;;;;25.00;22.80;;;;;11.87;49.35;98058.22;5129941;27;8992;-76
2023/12/13 08:40:24;;;;;;;;;18.80;17.20;;;;;11.88;49.62;98049.38;5112310;27;8926;-76
2023/12/13 08:42:53;;;;;;;;;17.80;17.80;;;;;11.92;49.62;98046.50;5112159;27;8841;-76
2023/12/13 08:45:22;;;;;;;;;19.00;17.20;;;;;11.84;49.74;98039.91;5133685;27;8864;-77
2023/12/13 08:47:52;;;;;;;;;15.40;9.80;;;;;11.96;49.18;98034.06;5152609;27;8868;-78
2023/12/13 08:50:22;;;;;;;;;19.20;16.80;;;;;11.83;49.65;98033.81;5135116;27;8841;-77
2023/12/13 08:52:51;;;;;;;;;20.20;19.40;;;;;11.91;49.72;98038.69;5153199;27;8873;-77
2023/12/13 08:55:20;;;;;;;;;21.00;19.60;;;;;11.93;49.42;98034.19;5152921;27;8841;-78
2023/12/13 08:57:49;;;;;;;;;19.00;17.60;;;;;11.91;49.52;98036.91;5116941;27;8968;-76
2023/12/13 09:00:19;;;;;;;;;20.40;17.00;;;;;11.97;49.23;98024.34;5087975;28;8817;-76
2023/12/13 09:02:48;;;;;;;;;18.40;18.20;;;;;12.03;49.04;98029.31;5088010;28;9710;-75
2023/12/13 09:05:19;;;;;;;;;18.00;16.60;;;;;12.15;49.06;98024.25;5088189;28;8877;-76
2023/12/13 09:07:48;;;;;;;;;20.00;18.40;;;;;12.18;48.80;98025.03;5054551;28;8846;-77
2023/12/13 09:10:17;;;;;;;;;19.80;17.60;;;;;12.20;48.72;98012.63;5088008;28;8845;-76
2023/12/13 09:12:46;;;;;;;;;18.20;17.40;;;;;12.28;48.60;98006.03;5071438;28;8946;-76
2023/12/13 09:15:17;;;;;;;;;19.80;19.00;;;;;12.31;48.75;98007.66;5087853;28;8962;-74
2023/12/13 09:17:46;;;;;;;;;22.40;20.00;;;;;12.44;48.48;98010.50;5087844;28;8857;-77
2023/12/13 09:20:15;;;;;;;;;20.00;18.40;;;;;12.46;48.54;97998.94;5047200;28;8856;-77
2023/12/13 09:22:46;;;;;;;;;19.80;18.80;;;;;12.63;47.76;97990.09;5047925;28;8878;-75
2023/12/13 09:25:15;;;;;;;;;17.40;16.80;;;;;12.63;48.07;97994.53;4998842;28;8884;-76
2023/12/13 09:27:46;;;;;;;;;20.00;19.60;;;;;12.77;47.70;97997.28;5027857;28;8858;-76
2023/12/13 09:30:15;;;;;;;;;17.80;17.40;;;;;12.86;47.59;97986.28;5027621;28;8896;-76
2023/12/13 09:32:44;;;;;;;;;19.40;18.40;;;;;13.05;46.91;97995.78;5070783;28;8942;-76
2023/12/13 09:35:16;;;;;;;;;19.00;19.00;;;;;13.20;46.59;97994.06;5087366;28;8856;-77
2023/12/13 09:37:46;;;;;;;;;17.80;15.80;;;;;13.39;46.17;97980.66;5070832;28;8881;-75
2023/12/13 09:40:16;;;;;;;;;21.20;19.40;;;;;13.53;45.97;97974.59;5087172;28;8870;-78
2023/12/13 09:42:47;;;;;;;;;19.60;19.40;;;;;13.66;45.63;97976.44;5070855;28;9580;-75
2023/12/13 09:45:21;;;;;;;;;17.80;17.20;;;;;13.72;45.58;97971.75;5101981;28;8899;-75
2023/12/13 09:47:53;;;;;;;;;11.80;10.60;;;;;13.75;45.20;97961.84;5074833;28;8860;-75
2023/12/13 09:50:24;;;;;;;;;23.20;22.80;;;;;13.84;45.34;97963.09;5059097;27;8871;-75
2023/12/13 09:52:55;;;;;;;;;14.40;14.40;;;;;13.87;44.95;97962.94;5098611;27;8837;-77
2023/12/13 09:55:25;;;;;;;;;14.40;12.60;;;;;14.01;44.63;97954.16;5151659;27;8860;-76
2023/12/13 09:57:55;;;;;;;;;16.20;15.00;;;;;14.04;44.49;97959.28;5115726;27;8849;-77
2023/12/13 10:00:24;;;;;;;;;14.00;12.40;;;;;14.11;44.23;97954.44;5132835;27;8821;-76
2023/12/13 10:02:53;;;;;;;;;16.60;16.20;;;;;14.15;44.22;97946.25;5151294;27;8849;-76
2023/12/13 10:05:23;;;;;;;;;16.40;14.40;;;;;14.11;44.27;97943.88;5098231;27;9590;-76
2023/12/13 10:08:02;;;;;;;;;18.80;17.80;;;;;14.17;44.23;97943.50;5126765;27;8876;-76
2023/12/13 10:10:32;;;;;;;;;15.80;15.20;;;;;14.15;43.75;97942.75;5112473;27;9674;-76
2023/12/13 10:13:02;;;;;;;;;14.80;14.20;;;;;14.17;44.09;97930.28;5111901;27;8861;-75
2023/12/13 10:15:32;;;;;;;;;13.80;13.60;;;;;14.17;44.00;97925.00;5111981;27;8938;-76
2023/12/13 10:18:02;;;;;;;;;16.80;15.00;;;;;14.17;44.19;97931.16;5130590;27;9717;-77
2023/12/13 10:20:34;;;;;;;;;20.20;16.00;;;;;14.22;44.31;97925.56;5128775;27;8846;-76
2023/12/13 10:23:08;;;;;;;;;20.00;18.60;;;;;14.35;43.77;97928.31;5130287;27;8845;-77
2023/12/13 10:25:38;;;;;;;;;17.20;15.40;;;;;14.41;43.41;97934.06;5130179;27;8834;-77
2023/12/13 10:28:07;;;;;;;;;17.60;15.20;;;;;14.50;43.50;97926.50;5094608;27;8866;-76
2023/12/13 10:30:36;;;;;;;;;13.80;11.80;;;;;14.38;43.74;97922.84;5076770;27;8829;-75
2023/12/13 10:33:05;;;;;;;;;19.60;17.80;;;;;14.35;43.92;97920.38;5131480;27;8872;-76
2023/12/13 10:35:35;;;;;;;;;18.40;17.40;;;;;14.48;43.70;97908.09;5132342;27;9016;-76
2023/12/13 10:38:07;;;;;;;;;19.00;17.80;;;;;14.43;43.95;97913.69;5151076;27;8845;-75
2023/12/13 10:40:37;;;;;;;;;18.80;17.60;;;;;14.42;43.84;97903.19;5131950;27;8861;-77
2023/12/13 10:43:10;;;;;;;;;18.80;17.80;;;;;14.49;43.62;97909.81;5150980;27;8833;-76
2023/12/13 10:45:41;;;;;;;;;19.80;18.20;;;;;14.53;43.59;97910.44;5131761;27;8853;-76
2023/12/13 10:48:12;;;;;;;;;19.80;19.80;;;;;14.53;43.51;97895.44;5132116;27;8857;-76
2023/12/13 10:50:42;;;;;;;;;16.60;16.60;;;;;14.66;43.19;97898.16;5150287;27;8849;-75
2023/12/13 10:53:13;;;;;;;;;19.00;16.60;;;;;14.83;43.19;97900.56;5097791;27;8844;-77
2023/12/13 10:55:44;;;;;;;;;18.80;17.60;;;;;14.85;43.02;97890.75;5131668;27;8829;-75
2023/12/13 10:58:14;;;;;;;;;18.40;17.40;;;;;14.85;42.96;97896.03;5130729;27;8867;-76
2023/12/13 11:00:44;;;;;;;;;14.00;14.00;;;;;14.97;42.69;97890.88;5113965;27;8852;-75
2023/12/13 11:03:19;;;;;;;;;19.80;19.80;;;;;14.97;42.97;97885.59;5131588;27;8895;-76
2023/12/13 11:05:49;;;;;;;;;19.80;18.80;;;;;14.97;42.88;97885.59;5131310;27;8841;-76
2023/12/13 11:08:20;;;;;;;;;21.20;20.20;;;;;15.03;42.76;97880.72;5150369;27;8957;-75
2023/12/13 11:11:01;;;;;;;;;22.80;22.00;;;;;15.21;42.54;97878.69;5150230;27;8830;-76
2023/12/13 11:13:30;;;;;;;;;22.60;22.60;;;;;15.16;42.43;97880.78;5131446;27;8841;-77
2023/12/13 11:15:59;;;;;;;;;25.40;22.00;;;;;15.29;42.42;97879.97;5096855;27;8891;-76
2023/12/13 11:18:30;;;;;;;;;20.60;20.20;;;;;15.34;42.35;97872.53;5149815;27;8863;-76
2023/12/13 11:21:06;;;;;;;;;23.40;23.20;;;;;15.45;42.05;97864.72;5150169;27;8855;-77
2023/12/13 11:23:39;;;;;;;;;22.60;20.80;;;;;15.56;41.90;97848.13;5150600;27;9080;-76
2023/12/13 11:26:16;;;;;;;;;16.80;16.40;;;;;15.61;41.90;97835.44;5150380;27;8894;-76
2023/12/13 11:28:50;;;;;;;;;24.00;23.60;;;;;15.69;41.71;97841.03;5150091;27;8868;-76
2023/12/13 11:31:22;;;;;;;;;20.00;20.00;;;;;15.70;41.70;97823.34;5148621;27;8831;-75
2023/12/13 11:33:51;;;;;;;;;21.40;20.40;;;;;15.75;41.35;97826.53;5149936;27;8839;-76
2023/12/13 11:36:21;;;;;;;;;22.00;20.00;;;;;15.83;41.55;97825.06;5149521;27;8917;-77
2023/12/13 11:38:56;;;;;;;;;20.80;19.60;;;;;15.95;41.56;97819.84;5149919;27;8843;-78
2023/12/13 11:41:25;;;;;;;;;20.80;19.60;;;;;15.85;41.52;97803.75;5095916;27;8918;-76
2023/12/13 11:43:54;;;;;;;;;22.20;19.40;;;;;15.93;41.32;97812.00;5149863;27;8858;-77